createdAt,value
2018-12-06T00:01:14.226Z,1.77
2018-12-06T00:06:18.246Z,2.07
2018-12-06T00:11:22.245Z,2.20
2018-12-06T00:16:26.204Z,2.20
2018-12-06T00:21:30.215Z,2.50
2018-12-06T00:26:34.480Z,2.63
2018-12-06T00:31:38.665Z,2.83
2018-12-06T00:36:42.633Z,3.30
2018-12-06T00:41:46.582Z,3.20
2018-12-06T00:46:50.547Z,3.30
2018-12-06T00:51:54.447Z,3.00
2018-12-06T00:56:58.420Z,3.10
2018-12-06T01:02:02.343Z,3.17
2018-12-06T01:07:06.345Z,3.40
2018-12-06T01:12:10.321Z,3.27
2018-12-06T01:17:14.212Z,3.60
2018-12-06T01:22:18.151Z,2.90
2018-12-06T01:27:22.777Z,2.80
2018-12-06T01:32:26.680Z,2.93
2018-12-06T01:37:30.925Z,3.10
2018-12-06T01:42:34.910Z,2.83
2018-12-06T01:47:38.866Z,2.90
2018-12-06T01:52:42.798Z,3.30
2018-12-06T01:57:46.744Z,3.00
2018-12-06T02:02:50.613Z,2.73
2018-12-06T02:07:54.585Z,2.73
2018-12-06T02:12:58.677Z,2.60
2018-12-06T02:18:02.637Z,2.63
2018-12-06T02:23:06.567Z,2.20
2018-12-06T02:28:10.502Z,2.37
2018-12-06T02:33:14.409Z,2.20
2018-12-06T02:38:18.402Z,2.47
2018-12-06T02:43:22.390Z,2.20
2018-12-06T02:48:26.401Z,2.20
2018-12-06T02:53:30.453Z,1.80
2018-12-06T02:58:34.377Z,1.73
2018-12-06T03:03:38.360Z,2.07
2018-12-06T03:08:42.265Z,1.80
2018-12-06T03:13:46.181Z,1.63
2018-12-06T03:18:50.270Z,1.93
2018-12-06T03:23:54.340Z,1.70
2018-12-06T03:28:58.341Z,1.40
2018-12-06T03:34:02.448Z,2.00
2018-12-06T03:39:07.706Z,1.60
2018-12-06T03:44:11.809Z,1.73
2018-12-06T03:49:15.722Z,1.80
2018-12-06T03:54:19.792Z,1.50
2018-12-06T03:59:24.270Z,1.57
2018-12-06T04:04:28.227Z,1.80
2018-12-06T04:09:32.214Z,1.97
2018-12-06T04:14:36.153Z,1.80
2018-12-06T04:19:40.088Z,1.90
2018-12-06T04:24:44.196Z,1.60
2018-12-06T04:29:48.152Z,1.60
2018-12-06T04:34:52.124Z,1.93
2018-12-06T04:39:56.181Z,1.60
2018-12-06T04:45:00.160Z,1.87
2018-12-06T04:50:04.417Z,1.97
2018-12-06T04:55:08.294Z,1.73
2018-12-06T05:00:12.292Z,1.93
2018-12-06T05:05:16.289Z,1.93
2018-12-06T05:10:20.313Z,2.10
2018-12-06T05:15:24.705Z,1.60
2018-12-06T05:20:28.708Z,1.87
2018-12-06T05:25:32.750Z,1.83
2018-12-06T05:30:36.686Z,1.70
2018-12-06T05:35:40.618Z,1.47
2018-12-06T05:40:44.574Z,1.63
2018-12-06T05:45:48.510Z,1.50
2018-12-06T05:50:52.453Z,1.50
2018-12-06T05:55:56.481Z,1.60
2018-12-06T06:01:00.437Z,1.57
2018-12-06T06:06:04.537Z,1.80
2018-12-06T06:11:08.454Z,1.60
2018-12-06T06:16:12.357Z,2.17
2018-12-06T06:21:16.322Z,1.70
2018-12-06T06:26:20.408Z,2.30
2018-12-06T06:31:24.336Z,2.40
2018-12-06T06:36:28.246Z,2.40
2018-12-06T06:41:32.217Z,2.43
2018-12-06T06:46:36.109Z,2.70
2018-12-06T06:51:40.377Z,3.30
2018-12-06T06:56:44.577Z,3.20
2018-12-06T07:01:48.677Z,3.43
2018-12-06T07:06:52.733Z,3.37
2018-12-06T07:11:56.689Z,3.10
2018-12-06T07:17:00.697Z,3.63
2018-12-06T07:22:06.096Z,4.30
2018-12-06T07:27:10.013Z,5.27
2018-12-06T07:32:13.970Z,4.97
2018-12-06T07:37:18.037Z,4.63
2018-12-06T07:42:21.931Z,4.83
2018-12-06T07:47:25.853Z,5.00
2018-12-06T07:52:29.969Z,5.73
2018-12-06T07:57:34.049Z,5.57
2018-12-06T08:02:38.169Z,5.70
2018-12-06T08:07:42.158Z,5.77
2018-12-06T08:12:46.140Z,6.27
2018-12-06T08:17:50.018Z,5.10
2018-12-06T08:22:53.985Z,5.77
2018-12-06T08:27:58.174Z,5.20
2018-12-06T08:33:02.308Z,4.63
2018-12-06T08:38:06.300Z,4.80
2018-12-06T08:43:10.409Z,4.73
2018-12-06T08:48:14.350Z,4.57
2018-12-06T08:53:18.366Z,5.27
2018-12-06T08:58:22.578Z,4.90
2018-12-06T09:03:26.647Z,5.03
2018-12-06T09:08:30.621Z,4.63
2018-12-06T09:13:34.734Z,3.80
2018-12-06T09:18:38.781Z,4.73
2018-12-06T09:23:43.045Z,4.43
2018-12-06T09:28:47.318Z,3.87
2018-12-06T09:34:05.765Z,3.73
2018-12-06T09:39:10.395Z,4.17
2018-12-06T09:44:14.320Z,4.50
2018-12-06T09:49:18.301Z,4.30
2018-12-06T09:54:22.461Z,4.53
2018-12-06T09:59:26.426Z,4.03
2018-12-06T10:04:30.430Z,4.27
2018-12-06T10:09:34.369Z,3.00
2018-12-06T10:14:38.522Z,3.90
2018-12-06T10:19:42.467Z,3.33
2018-12-06T10:24:46.425Z,3.20
2018-12-06T10:29:50.397Z,2.83
2018-12-06T10:34:54.314Z,3.17
2018-12-06T10:39:58.337Z,2.93
2018-12-06T10:45:02.560Z,2.60
2018-12-06T10:50:06.749Z,2.60
2018-12-06T10:55:10.678Z,2.80
2018-12-06T11:00:20.228Z,2.60
2018-12-06T11:05:24.680Z,2.70
2018-12-06T11:10:28.628Z,3.40
2018-12-06T11:15:32.632Z,3.00
2018-12-06T11:20:36.578Z,2.73
2018-12-06T11:25:40.577Z,2.57
2018-12-06T11:30:44.559Z,2.47
2018-12-06T11:35:48.584Z,2.40
2018-12-06T11:40:52.545Z,2.90
2018-12-06T11:45:56.661Z,2.80
2018-12-06T11:51:00.597Z,2.70
2018-12-06T11:56:04.749Z,2.37
2018-12-06T12:01:08.832Z,2.57
2018-12-06T12:06:12.750Z,2.40
2018-12-06T12:11:16.785Z,2.90
2018-12-06T12:16:20.745Z,2.30
2018-12-06T12:21:24.855Z,2.63
2018-12-06T12:26:29.098Z,2.50
2018-12-06T12:31:33.984Z,2.43
2018-12-06T12:36:38.033Z,2.33
2018-12-06T12:41:42.065Z,2.63
2018-12-06T12:46:46.185Z,3.50
2018-12-06T12:51:50.181Z,2.87
2018-12-06T12:56:54.677Z,2.60
2018-12-06T13:01:58.929Z,2.83
2018-12-06T13:07:10.936Z,2.40
2018-12-06T13:12:14.951Z,2.50
2018-12-06T13:17:18.893Z,2.80
2018-12-06T13:22:22.826Z,2.33
2018-12-06T13:27:26.791Z,2.37
2018-12-06T13:32:30.854Z,2.40
